sensor_id;sensor_type;location;lat;lon;timestamp;P1;durP1;ratioP1;P2;durP2;ratioP2
64959;SDS011;51487;52.266;10.542;2023-08-01T00:01:36;4.50;;;1.50;;
64959;SDS011;51487;52.266;10.542;2023-08-01T00:04:02;1.70;;;1.40;;
64959;SDS011;51487;52.266;10.542;2023-08-01T00:06:29;3.28;;;1.60;;
64959;SDS011;51487;52.266;10.542;2023-08-01T00:08:55;1.83;;;1.48;;
64959;SDS011;51487;52.266;10.542;2023-08-01T00:11:20;3.50;;;1.38;;
64959;SDS011;51487;52.266;10.542;2023-08-01T00:13:46;2.13;;;1.40;;
64959;SDS011;51487;52.266;10.542;2023-08-01T00:16:11;2.00;;;1.70;;
64959;SDS011;51487;52.266;10.542;2023-08-01T00:18:37;2.00;;;1.48;;
64959;SDS011;51487;52.266;10.542;2023-08-01T00:21:03;1.67;;;1.40;;
64959;SDS011;51487;52.266;10.542;2023-08-01T00:23:30;1.80;;;1.45;;
64959;SDS011;51487;52.266;10.542;2023-08-01T00:25:56;4.82;;;1.67;;
64959;SDS011;51487;52.266;10.542;2023-08-01T00:28:22;3.50;;;1.90;;
64959;SDS011;51487;52.266;10.542;2023-08-01T00:30:48;5.55;;;2.25;;
64959;SDS011;51487;52.266;10.542;2023-08-01T00:33:13;6.03;;;2.03;;
64959;SDS011;51487;52.266;10.542;2023-08-01T00:35:40;4.07;;;2.20;;
64959;SDS011;51487;52.266;10.542;2023-08-01T00:38:06;2.47;;;1.98;;
64959;SDS011;51487;52.266;10.542;2023-08-01T00:40:33;3.25;;;1.90;;
64959;SDS011;51487;52.266;10.542;2023-08-01T00:42:59;3.65;;;1.73;;
64959;SDS011;51487;52.266;10.542;2023-08-01T00:45:28;5.18;;;1.90;;
64959;SDS011;51487;52.266;10.542;2023-08-01T00:47:55;2.63;;;1.70;;
64959;SDS011;51487;52.266;10.542;2023-08-01T00:50:22;4.15;;;2.00;;
64959;SDS011;51487;52.266;10.542;2023-08-01T00:52:52;3.70;;;1.90;;
64959;SDS011;51487;52.266;10.542;2023-08-01T00:55:18;3.17;;;2.10;;
64959;SDS011;51487;52.266;10.542;2023-08-01T00:57:44;3.72;;;2.10;;
64959;SDS011;51487;52.266;10.542;2023-08-01T01:00:10;4.30;;;1.98;;
64959;SDS011;51487;52.266;10.542;2023-08-01T01:02:37;8.93;;;2.05;;
64959;SDS011;51487;52.266;10.542;2023-08-01T01:05:03;3.70;;;2.20;;
64959;SDS011;51487;52.266;10.542;2023-08-01T01:07:30;4.03;;;1.77;;
64959;SDS011;51487;52.266;10.542;2023-08-01T01:09:59;4.07;;;2.00;;
64959;SDS011;51487;52.266;10.542;2023-08-01T01:12:25;4.18;;;1.98;;
64959;SDS011;51487;52.266;10.542;2023-08-01T01:14:51;5.40;;;2.17;;
64959;SDS011;51487;52.266;10.542;2023-08-01T01:17:18;2.88;;;1.80;;
64959;SDS011;51487;52.266;10.542;2023-08-01T01:19:43;3.55;;;2.05;;
64959;SDS011;51487;52.266;10.542;2023-08-01T01:22:09;5.82;;;2.20;;
64959;SDS011;51487;52.266;10.542;2023-08-01T01:24:36;3.92;;;2.10;;
64959;SDS011;51487;52.266;10.542;2023-08-01T01:27:04;3.65;;;2.13;;
64959;SDS011;51487;52.266;10.542;2023-08-01T01:29:32;7.18;;;2.35;;
64959;SDS011;51487;52.266;10.542;2023-08-01T01:32:00;4.60;;;2.88;;
64959;SDS011;51487;52.266;10.542;2023-08-01T01:34:27;6.50;;;3.40;;
64959;SDS011;51487;52.266;10.542;2023-08-01T01:36:53;7.50;;;3.42;;
64959;SDS011;51487;52.266;10.542;2023-08-01T01:39:19;5.32;;;3.72;;
64959;SDS011;51487;52.266;10.542;2023-08-01T01:41:45;6.18;;;3.97;;
64959;SDS011;51487;52.266;10.542;2023-08-01T01:44:11;6.80;;;4.20;;
64959;SDS011;51487;52.266;10.542;2023-08-01T01:46:39;6.25;;;4.13;;
64959;SDS011;51487;52.266;10.542;2023-08-01T01:49:04;6.50;;;3.80;;
64959;SDS011;51487;52.266;10.542;2023-08-01T01:51:30;7.38;;;4.00;;
64959;SDS011;51487;52.266;10.542;2023-08-01T01:53:56;5.38;;;3.03;;
64959;SDS011;51487;52.266;10.542;2023-08-01T01:56:22;6.03;;;3.10;;
64959;SDS011;51487;52.266;10.542;2023-08-01T01:58:48;5.47;;;3.13;;
64959;SDS011;51487;52.266;10.542;2023-08-01T02:01:13;3.45;;;2.63;;
64959;SDS011;51487;52.266;10.542;2023-08-01T02:03:39;5.35;;;2.63;;
64959;SDS011;51487;52.266;10.542;2023-08-01T02:06:05;4.25;;;2.10;;
64959;SDS011;51487;52.266;10.542;2023-08-01T02:08:30;4.88;;;2.30;;
64959;SDS011;51487;52.266;10.542;2023-08-01T02:10:56;4.25;;;2.28;;
64959;SDS011;51487;52.266;10.542;2023-08-01T02:13:27;6.18;;;2.28;;
64959;SDS011;51487;52.266;10.542;2023-08-01T02:15:55;4.90;;;2.00;;
64959;SDS011;51487;52.266;10.542;2023-08-01T02:18:20;7.18;;;2.22;;
64959;SDS011;51487;52.266;10.542;2023-08-01T02:20:46;4.45;;;2.20;;
64959;SDS011;51487;52.266;10.542;2023-08-01T02:23:12;4.72;;;2.15;;
64959;SDS011;51487;52.266;10.542;2023-08-01T02:25:40;6.47;;;1.80;;
64959;SDS011;51487;52.266;10.542;2023-08-01T02:28:07;3.85;;;2.08;;
64959;SDS011;51487;52.266;10.542;2023-08-01T02:30:33;2.85;;;1.88;;
64959;SDS011;51487;52.266;10.542;2023-08-01T02:33:00;7.07;;;2.42;;
64959;SDS011;51487;52.266;10.542;2023-08-01T02:35:25;5.88;;;2.05;;
64959;SDS011;51487;52.266;10.542;2023-08-01T02:37:53;3.95;;;2.60;;
64959;SDS011;51487;52.266;10.542;2023-08-01T02:40:19;4.90;;;2.65;;
64959;SDS011;51487;52.266;10.542;2023-08-01T02:42:46;5.15;;;2.50;;
64959;SDS011;51487;52.266;10.542;2023-08-01T02:45:12;3.28;;;1.90;;
64959;SDS011;51487;52.266;10.542;2023-08-01T02:47:38;3.97;;;2.10;;
64959;SDS011;51487;52.266;10.542;2023-08-01T02:50:05;3.38;;;2.00;;
64959;SDS011;51487;52.266;10.542;2023-08-01T02:52:31;2.30;;;1.70;;
64959;SDS011;51487;52.266;10.542;2023-08-01T02:54:57;3.88;;;1.60;;
64959;SDS011;51487;52.266;10.542;2023-08-01T02:57:23;2.97;;;1.70;;
64959;SDS011;51487;52.266;10.542;2023-08-01T02:59:49;2.60;;;1.80;;
64959;SDS011;51487;52.266;10.542;2023-08-01T03:02:14;2.47;;;1.50;;
64959;SDS011;51487;52.266;10.542;2023-08-01T03:04:43;2.63;;;1.50;;
64959;SDS011;51487;52.266;10.542;2023-08-01T03:07:08;2.33;;;1.60;;
64959;SDS011;51487;52.266;10.542;2023-08-01T03:09:34;1.85;;;1.40;;
64959;SDS011;51487;52.266;10.542;2023-08-01T03:11:59;2.08;;;1.50;;
64959;SDS011;51487;52.266;10.542;2023-08-01T03:14:25;2.90;;;1.67;;
64959;SDS011;51487;52.266;10.542;2023-08-01T03:16:51;1.95;;;1.45;;
64959;SDS011;51487;52.266;10.542;2023-08-01T03:19:16;3.42;;;1.48;;
64959;SDS011;51487;52.266;10.542;2023-08-01T03:21:42;3.88;;;1.52;;
64959;SDS011;51487;52.266;10.542;2023-08-01T03:24:07;2.17;;;1.80;;
64959;SDS011;51487;52.266;10.542;2023-08-01T03:26:34;2.17;;;1.42;;
64959;SDS011;51487;52.266;10.542;2023-08-01T03:29:01;2.17;;;1.85;;
64959;SDS011;51487;52.266;10.542;2023-08-01T03:31:27;3.03;;;1.70;;
64959;SDS011;51487;52.266;10.542;2023-08-01T03:33:53;3.88;;;1.90;;
64959;SDS011;51487;52.266;10.542;2023-08-01T03:36:19;2.63;;;1.58;;
64959;SDS011;51487;52.266;10.542;2023-08-01T03:38:45;3.42;;;1.90;;
64959;SDS011;51487;52.266;10.542;2023-08-01T03:41:11;2.42;;;1.90;;
64959;SDS011;51487;52.266;10.542;2023-08-01T03:43:37;4.70;;;2.08;;
64959;SDS011;51487;52.266;10.542;2023-08-01T03:46:04;2.88;;;2.00;;
64959;SDS011;51487;52.266;10.542;2023-08-01T03:48:30;4.20;;;2.03;;
64959;SDS011;51487;52.266;10.542;2023-08-01T03:50:57;4.00;;;2.30;;
64959;SDS011;51487;52.266;10.542;2023-08-01T03:53:23;5.72;;;2.40;;
64959;SDS011;51487;52.266;10.542;2023-08-01T03:55:49;3.10;;;2.00;;
64959;SDS011;51487;52.266;10.542;2023-08-01T03:58:14;5.32;;;2.67;;
64959;SDS011;51487;52.266;10.542;2023-08-01T04:00:42;5.15;;;2.00;;
64959;SDS011;51487;52.266;10.542;2023-08-01T04:03:08;2.95;;;2.13;;
64959;SDS011;51487;52.266;10.542;2023-08-01T04:05:33;2.97;;;2.05;;
64959;SDS011;51487;52.266;10.542;2023-08-01T04:07:59;4.07;;;2.13;;
64959;SDS011;51487;52.266;10.542;2023-08-01T04:10:25;5.57;;;2.05;;
64959;SDS011;51487;52.266;10.542;2023-08-01T04:12:50;2.97;;;1.75;;
64959;SDS011;51487;52.266;10.542;2023-08-01T04:15:16;2.85;;;1.95;;
64959;SDS011;51487;52.266;10.542;2023-08-01T04:17:42;3.00;;;1.80;;
64959;SDS011;51487;52.266;10.542;2023-08-01T04:20:07;3.15;;;1.65;;
64959;SDS011;51487;52.266;10.542;2023-08-01T04:22:33;3.55;;;2.00;;
64959;SDS011;51487;52.266;10.542;2023-08-01T04:25:00;3.47;;;1.80;;
64959;SDS011;51487;52.266;10.542;2023-08-01T04:27:27;5.90;;;2.00;;
64959;SDS011;51487;52.266;10.542;2023-08-01T04:29:52;3.35;;;1.90;;
64959;SDS011;51487;52.266;10.542;2023-08-01T04:32:19;4.40;;;1.70;;
64959;SDS011;51487;52.266;10.542;2023-08-01T04:34:44;2.35;;;1.60;;
64959;SDS011;51487;52.266;10.542;2023-08-01T04:37:10;2.80;;;1.45;;
64959;SDS011;51487;52.266;10.542;2023-08-01T04:39:36;2.30;;;1.50;;
64959;SDS011;51487;52.266;10.542;2023-08-01T04:42:02;1.83;;;1.40;;
64959;SDS011;51487;52.266;10.542;2023-08-01T04:44:28;3.47;;;1.30;;
64959;SDS011;51487;52.266;10.542;2023-08-01T04:46:54;2.50;;;1.45;;
64959;SDS011;51487;52.266;10.542;2023-08-01T04:49:20;1.92;;;1.33;;
64959;SDS011;51487;52.266;10.542;2023-08-01T04:51:45;1.80;;;1.40;;
64959;SDS011;51487;52.266;10.542;2023-08-01T04:54:13;1.35;;;1.13;;
64959;SDS011;51487;52.266;10.542;2023-08-01T04:56:39;3.10;;;1.50;;
64959;SDS011;51487;52.266;10.542;2023-08-01T04:59:05;2.97;;;1.35;;
64959;SDS011;51487;52.266;10.542;2023-08-01T05:01:30;6.45;;;1.58;;
64959;SDS011;51487;52.266;10.542;2023-08-01T05:03:56;2.38;;;1.58;;
64959;SDS011;51487;52.266;10.542;2023-08-01T05:06:22;5.22;;;1.67;;
64959;SDS011;51487;52.266;10.542;2023-08-01T05:08:49;2.90;;;1.70;;
64959;SDS011;51487;52.266;10.542;2023-08-01T05:11:18;2.78;;;1.50;;
64959;SDS011;51487;52.266;10.542;2023-08-01T05:13:44;2.90;;;1.42;;
64959;SDS011;51487;52.266;10.542;2023-08-01T05:16:09;3.70;;;1.40;;
64959;SDS011;51487;52.266;10.542;2023-08-01T05:18:35;1.30;;;1.20;;
64959;SDS011;51487;52.266;10.542;2023-08-01T05:21:00;2.70;;;1.20;;
64959;SDS011;51487;52.266;10.542;2023-08-01T05:23:26;1.55;;;0.90;;
64959;SDS011;51487;52.266;10.542;2023-08-01T05:25:52;0.80;;;0.80;;
64959;SDS011;51487;52.266;10.542;2023-08-01T05:28:19;2.28;;;0.93;;
64959;SDS011;51487;52.266;10.542;2023-08-01T05:30:44;3.10;;;1.00;;
64959;SDS011;51487;52.266;10.542;2023-08-01T05:33:10;1.70;;;0.98;;
64959;SDS011;51487;52.266;10.542;2023-08-01T05:35:36;2.47;;;1.10;;
64959;SDS011;51487;52.266;10.542;2023-08-01T05:38:01;1.20;;;0.80;;
64959;SDS011;51487;52.266;10.542;2023-08-01T05:40:27;1.90;;;0.80;;
64959;SDS011;51487;52.266;10.542;2023-08-01T05:42:53;0.77;;;0.70;;
64959;SDS011;51487;52.266;10.542;2023-08-01T05:45:18;1.00;;;0.70;;
64959;SDS011;51487;52.266;10.542;2023-08-01T05:47:44;0.70;;;0.70;;
64959;SDS011;51487;52.266;10.542;2023-08-01T05:50:11;0.95;;;0.80;;
64959;SDS011;51487;52.266;10.542;2023-08-01T05:52:37;1.58;;;0.80;;
64959;SDS011;51487;52.266;10.542;2023-08-01T05:55:03;0.60;;;0.60;;
64959;SDS011;51487;52.266;10.542;2023-08-01T05:57:29;0.70;;;0.70;;
64959;SDS011;51487;52.266;10.542;2023-08-01T05:59:55;2.25;;;0.80;;
64959;SDS011;51487;52.266;10.542;2023-08-01T06:02:20;0.95;;;0.68;;
64959;SDS011;51487;52.266;10.542;2023-08-01T06:04:46;1.45;;;0.77;;
64959;SDS011;51487;52.266;10.542;2023-08-01T06:07:12;0.60;;;0.60;;
64959;SDS011;51487;52.266;10.542;2023-08-01T06:09:37;0.68;;;0.68;;
64959;SDS011;51487;52.266;10.542;2023-08-01T06:12:03;0.90;;;0.70;;
64959;SDS011;51487;52.266;10.542;2023-08-01T06:14:29;0.50;;;0.50;;
64959;SDS011;51487;52.266;10.542;2023-08-01T06:16:55;1.00;;;0.57;;
64959;SDS011;51487;52.266;10.542;2023-08-01T06:19:20;0.98;;;0.60;;
64959;SDS011;51487;52.266;10.542;2023-08-01T06:21:46;0.60;;;0.60;;
64959;SDS011;51487;52.266;10.542;2023-08-01T06:24:12;0.70;;;0.70;;
64959;SDS011;51487;52.266;10.542;2023-08-01T06:26:37;0.95;;;0.77;;
64959;SDS011;51487;52.266;10.542;2023-08-01T06:29:03;0.70;;;0.70;;
64959;SDS011;51487;52.266;10.542;2023-08-01T06:31:28;2.05;;;0.90;;
64959;SDS011;51487;52.266;10.542;2023-08-01T06:33:54;0.88;;;0.88;;
64959;SDS011;51487;52.266;10.542;2023-08-01T06:36:20;1.88;;;0.80;;
64959;SDS011;51487;52.266;10.542;2023-08-01T06:38:45;0.85;;;0.68;;
64959;SDS011;51487;52.266;10.542;2023-08-01T06:41:11;0.80;;;0.80;;
64959;SDS011;51487;52.266;10.542;2023-08-01T06:43:37;2.88;;;0.75;;
64959;SDS011;51487;52.266;10.542;2023-08-01T06:46:03;2.25;;;0.90;;
64959;SDS011;51487;52.266;10.542;2023-08-01T06:48:30;0.82;;;0.70;;
64959;SDS011;51487;52.266;10.542;2023-08-01T06:51:00;1.40;;;0.98;;
64959;SDS011;51487;52.266;10.542;2023-08-01T06:53:27;1.83;;;0.90;;
64959;SDS011;51487;52.266;10.542;2023-08-01T06:55:53;1.70;;;1.00;;
64959;SDS011;51487;52.266;10.542;2023-08-01T06:58:18;1.85;;;1.05;;
64959;SDS011;51487;52.266;10.542;2023-08-01T07:00:44;1.27;;;1.13;;
64959;SDS011;51487;52.266;10.542;2023-08-01T07:03:09;1.33;;;1.00;;
64959;SDS011;51487;52.266;10.542;2023-08-01T07:05:35;2.08;;;1.10;;
64959;SDS011;51487;52.266;10.542;2023-08-01T07:08:02;2.35;;;1.30;;
64959;SDS011;51487;52.266;10.542;2023-08-01T07:10:28;2.30;;;1.13;;
64959;SDS011;51487;52.266;10.542;2023-08-01T07:12:53;2.10;;;1.20;;
64959;SDS011;51487;52.266;10.542;2023-08-01T07:15:19;2.28;;;1.30;;
64959;SDS011;51487;52.266;10.542;2023-08-01T07:17:44;4.43;;;1.48;;
64959;SDS011;51487;52.266;10.542;2023-08-01T07:20:10;3.22;;;1.67;;
64959;SDS011;51487;52.266;10.542;2023-08-01T07:22:36;2.45;;;1.52;;
64959;SDS011;51487;52.266;10.542;2023-08-01T07:25:01;2.75;;;1.48;;
64959;SDS011;51487;52.266;10.542;2023-08-01T07:27:27;2.00;;;1.40;;
64959;SDS011;51487;52.266;10.542;2023-08-01T07:29:53;1.50;;;1.40;;
64959;SDS011;51487;52.266;10.542;2023-08-01T07:32:19;1.40;;;1.27;;
64959;SDS011;51487;52.266;10.542;2023-08-01T07:34:44;1.42;;;1.30;;
64959;SDS011;51487;52.266;10.542;2023-08-01T07:37:10;2.92;;;1.42;;
64959;SDS011;51487;52.266;10.542;2023-08-01T07:39:36;2.97;;;1.20;;
64959;SDS011;51487;52.266;10.542;2023-08-01T07:42:01;2.47;;;1.17;;
64959;SDS011;51487;52.266;10.542;2023-08-01T07:44:28;1.30;;;1.20;;
64959;SDS011;51487;52.266;10.542;2023-08-01T07:46:54;2.17;;;1.23;;
64959;SDS011;51487;52.266;10.542;2023-08-01T07:49:19;1.33;;;1.20;;
64959;SDS011;51487;52.266;10.542;2023-08-01T07:51:45;2.83;;;1.45;;
64959;SDS011;51487;52.266;10.542;2023-08-01T07:54:10;1.95;;;1.30;;
64959;SDS011;51487;52.266;10.542;2023-08-01T07:56:36;2.60;;;1.50;;
64959;SDS011;51487;52.266;10.542;2023-08-01T07:59:02;2.05;;;1.60;;
64959;SDS011;51487;52.266;10.542;2023-08-01T08:01:27;2.50;;;1.60;;
64959;SDS011;51487;52.266;10.542;2023-08-01T08:03:53;4.20;;;1.80;;
64959;SDS011;51487;52.266;10.542;2023-08-01T08:06:19;3.10;;;1.92;;
64959;SDS011;51487;52.266;10.542;2023-08-01T08:08:46;3.85;;;2.30;;
64959;SDS011;51487;52.266;10.542;2023-08-01T08:11:11;5.43;;;2.50;;
64959;SDS011;51487;52.266;10.542;2023-08-01T08:13:37;5.50;;;2.70;;
64959;SDS011;51487;52.266;10.542;2023-08-01T08:16:03;5.28;;;2.78;;
64959;SDS011;51487;52.266;10.542;2023-08-01T08:18:30;4.32;;;2.70;;
64959;SDS011;51487;52.266;10.542;2023-08-01T08:20:55;5.07;;;2.58;;
64959;SDS011;51487;52.266;10.542;2023-08-01T08:23:21;4.20;;;2.60;;
64959;SDS011;51487;52.266;10.542;2023-08-01T08:25:46;5.85;;;2.90;;
64959;SDS011;51487;52.266;10.542;2023-08-01T08:28:12;5.40;;;3.00;;
64959;SDS011;51487;52.266;10.542;2023-08-01T08:30:39;6.07;;;3.30;;
64959;SDS011;51487;52.266;10.542;2023-08-01T08:33:05;8.15;;;3.08;;
64959;SDS011;51487;52.266;10.542;2023-08-01T08:35:32;5.25;;;2.95;;
64959;SDS011;51487;52.266;10.542;2023-08-01T08:38:01;5.88;;;2.88;;
64959;SDS011;51487;52.266;10.542;2023-08-01T08:40:33;5.72;;;2.88;;
64959;SDS011;51487;52.266;10.542;2023-08-01T08:43:06;6.25;;;2.88;;
64959;SDS011;51487;52.266;10.542;2023-08-01T08:45:34;5.50;;;2.70;;
64959;SDS011;51487;52.266;10.542;2023-08-01T08:48:01;6.50;;;2.95;;
64959;SDS011;51487;52.266;10.542;2023-08-01T08:50:35;5.50;;;2.92;;
64959;SDS011;51487;52.266;10.542;2023-08-01T08:53:03;5.20;;;2.88;;
64959;SDS011;51487;52.266;10.542;2023-08-01T08:55:37;6.43;;;3.15;;
64959;SDS011;51487;52.266;10.542;2023-08-01T08:58:03;5.18;;;2.83;;
64959;SDS011;51487;52.266;10.542;2023-08-01T09:00:29;8.65;;;2.95;;
64959;SDS011;51487;52.266;10.542;2023-08-01T09:02:55;5.75;;;2.90;;
64959;SDS011;51487;52.266;10.542;2023-08-01T09:05:22;9.13;;;2.75;;
64959;SDS011;51487;52.266;10.542;2023-08-01T09:07:56;4.68;;;2.83;;
64959;SDS011;51487;52.266;10.542;2023-08-01T09:10:24;5.22;;;2.70;;
64959;SDS011;51487;52.266;10.542;2023-08-01T09:12:49;6.97;;;3.33;;
64959;SDS011;51487;52.266;10.542;2023-08-01T09:15:16;8.57;;;3.00;;
64959;SDS011;51487;52.266;10.542;2023-08-01T09:17:49;5.47;;;2.35;;
64959;SDS011;51487;52.266;10.542;2023-08-01T09:20:21;7.85;;;2.80;;
64959;SDS011;51487;52.266;10.542;2023-08-01T09:22:47;5.13;;;2.70;;
64959;SDS011;51487;52.266;10.542;2023-08-01T09:25:13;5.28;;;3.10;;
64959;SDS011;51487;52.266;10.542;2023-08-01T09:27:38;5.88;;;2.92;;
64959;SDS011;51487;52.266;10.542;2023-08-01T09:30:08;5.78;;;3.00;;
64959;SDS011;51487;52.266;10.542;2023-08-01T09:32:51;5.60;;;2.90;;
64959;SDS011;51487;52.266;10.542;2023-08-01T09:35:21;5.25;;;2.45;;
64959;SDS011;51487;52.266;10.542;2023-08-01T09:37:47;8.02;;;2.67;;
64959;SDS011;51487;52.266;10.542;2023-08-01T09:40:14;4.32;;;2.28;;
64959;SDS011;51487;52.266;10.542;2023-08-01T09:42:40;5.57;;;2.35;;
64959;SDS011;51487;52.266;10.542;2023-08-01T09:45:14;5.82;;;2.47;;
64959;SDS011;51487;52.266;10.542;2023-08-01T09:47:42;4.57;;;2.60;;
64959;SDS011;51487;52.266;10.542;2023-08-01T09:50:09;6.28;;;3.00;;
64959;SDS011;51487;52.266;10.542;2023-08-01T09:52:38;5.40;;;2.70;;
64959;SDS011;51487;52.266;10.542;2023-08-01T09:55:04;5.20;;;2.35;;
64959;SDS011;51487;52.266;10.542;2023-08-01T09:57:30;5.55;;;2.50;;
64959;SDS011;51487;52.266;10.542;2023-08-01T09:59:57;4.22;;;2.40;;
64959;SDS011;51487;52.266;10.542;2023-08-01T10:02:27;5.43;;;2.55;;
64959;SDS011;51487;52.266;10.542;2023-08-01T10:04:58;7.78;;;2.45;;
64959;SDS011;51487;52.266;10.542;2023-08-01T10:07:28;4.75;;;2.30;;
64959;SDS011;51487;52.266;10.542;2023-08-01T10:09:57;5.70;;;2.08;;
64959;SDS011;51487;52.266;10.542;2023-08-01T10:12:25;4.93;;;2.50;;
64959;SDS011;51487;52.266;10.542;2023-08-01T10:14:53;7.57;;;2.17;;
64959;SDS011;51487;52.266;10.542;2023-08-01T10:17:21;5.13;;;1.90;;
64959;SDS011;51487;52.266;10.542;2023-08-01T10:19:47;7.25;;;2.17;;
64959;SDS011;51487;52.266;10.542;2023-08-01T10:22:16;4.68;;;2.20;;
64959;SDS011;51487;52.266;10.542;2023-08-01T10:24:44;4.78;;;2.20;;
64959;SDS011;51487;52.266;10.542;2023-08-01T10:27:18;4.57;;;1.88;;
64959;SDS011;51487;52.266;10.542;2023-08-01T10:29:55;3.25;;;1.73;;
64959;SDS011;51487;52.266;10.542;2023-08-01T10:32:35;3.95;;;1.70;;
64959;SDS011;51487;52.266;10.542;2023-08-01T10:35:03;2.85;;;1.88;;
64959;SDS011;51487;52.266;10.542;2023-08-01T10:37:40;4.18;;;1.70;;
64959;SDS011;51487;52.266;10.542;2023-08-01T10:40:13;5.82;;;1.90;;
64959;SDS011;51487;52.266;10.542;2023-08-01T10:42:40;6.03;;;2.38;;
64959;SDS011;51487;52.266;10.542;2023-08-01T10:45:18;8.75;;;2.15;;
64959;SDS011;51487;52.266;10.542;2023-08-01T10:47:47;4.53;;;2.20;;
64959;SDS011;51487;52.266;10.542;2023-08-01T10:50:16;5.20;;;2.17;;
64959;SDS011;51487;52.266;10.542;2023-08-01T10:52:46;4.00;;;2.22;;
64959;SDS011;51487;52.266;10.542;2023-08-01T10:55:12;7.72;;;2.20;;
64959;SDS011;51487;52.266;10.542;2023-08-01T10:57:39;4.15;;;2.30;;
64959;SDS011;51487;52.266;10.542;2023-08-01T11:00:16;5.30;;;2.10;;
64959;SDS011;51487;52.266;10.542;2023-08-01T11:02:50;4.95;;;1.90;;
64959;SDS011;51487;52.266;10.542;2023-08-01T11:05:20;3.88;;;2.08;;
64959;SDS011;51487;52.266;10.542;2023-08-01T11:10:40;3.40;;;1.60;;
64959;SDS011;51487;52.266;10.542;2023-08-01T11:13:06;3.72;;;1.70;;
64959;SDS011;51487;52.266;10.542;2023-08-01T11:15:37;9.43;;;2.13;;
64959;SDS011;51487;52.266;10.542;2023-08-01T11:18:03;4.45;;;1.83;;
64959;SDS011;51487;52.266;10.542;2023-08-01T11:20:29;3.90;;;1.63;;
64959;SDS011;51487;52.266;10.542;2023-08-01T11:22:58;3.15;;;1.50;;
64959;SDS011;51487;52.266;10.542;2023-08-01T11:28:07;2.63;;;1.67;;
64959;SDS011;51487;52.266;10.542;2023-08-01T11:30:35;3.20;;;1.63;;
64959;SDS011;51487;52.266;10.542;2023-08-01T11:33:02;2.67;;;1.63;;
64959;SDS011;51487;52.266;10.542;2023-08-01T11:35:39;5.13;;;1.77;;
64959;SDS011;51487;52.266;10.542;2023-08-01T11:38:09;3.25;;;1.75;;
64959;SDS011;51487;52.266;10.542;2023-08-01T11:40:38;5.88;;;1.65;;
64959;SDS011;51487;52.266;10.542;2023-08-01T11:43:05;2.25;;;1.50;;
64959;SDS011;51487;52.266;10.542;2023-08-01T11:45:34;2.67;;;1.60;;
64959;SDS011;51487;52.266;10.542;2023-08-01T11:48:04;3.67;;;1.58;;
64959;SDS011;51487;52.266;10.542;2023-08-01T11:50:31;3.40;;;1.70;;
64959;SDS011;51487;52.266;10.542;2023-08-01T11:52:58;3.25;;;1.67;;
64959;SDS011;51487;52.266;10.542;2023-08-01T11:55:33;4.32;;;1.58;;
64959;SDS011;51487;52.266;10.542;2023-08-01T11:58:02;2.53;;;1.48;;
64959;SDS011;51487;52.266;10.542;2023-08-01T12:00:29;3.35;;;1.58;;
64959;SDS011;51487;52.266;10.542;2023-08-01T12:03:06;3.47;;;1.77;;
64959;SDS011;51487;52.266;10.542;2023-08-01T12:05:38;1.98;;;1.40;;
64959;SDS011;51487;52.266;10.542;2023-08-01T12:10:40;2.90;;;1.55;;
64959;SDS011;51487;52.266;10.542;2023-08-01T12:13:23;3.80;;;1.60;;
64959;SDS011;51487;52.266;10.542;2023-08-01T12:15:55;4.32;;;1.48;;
64959;SDS011;51487;52.266;10.542;2023-08-01T12:18:22;2.35;;;1.40;;
64959;SDS011;51487;52.266;10.542;2023-08-01T12:20:53;2.10;;;1.40;;
64959;SDS011;51487;52.266;10.542;2023-08-01T12:23:19;3.42;;;1.85;;
64959;SDS011;51487;52.266;10.542;2023-08-01T12:25:47;4.22;;;1.40;;
64959;SDS011;51487;52.266;10.542;2023-08-01T12:28:14;3.25;;;1.80;;
64959;SDS011;51487;52.266;10.542;2023-08-01T12:30:40;3.70;;;1.80;;
64959;SDS011;51487;52.266;10.542;2023-08-01T12:33:08;3.10;;;1.40;;
64959;SDS011;51487;52.266;10.542;2023-08-01T12:35:38;2.45;;;1.48;;
64959;SDS011;51487;52.266;10.542;2023-08-01T12:38:14;2.38;;;1.55;;
64959;SDS011;51487;52.266;10.542;2023-08-01T12:40:49;2.78;;;1.42;;
64959;SDS011;51487;52.266;10.542;2023-08-01T12:43:15;1.75;;;1.40;;
64959;SDS011;51487;52.266;10.542;2023-08-01T12:45:42;2.70;;;1.50;;
64959;SDS011;51487;52.266;10.542;2023-08-01T12:48:08;3.85;;;1.80;;
64959;SDS011;51487;52.266;10.542;2023-08-01T12:50:34;4.25;;;1.75;;
64959;SDS011;51487;52.266;10.542;2023-08-01T12:52:59;3.33;;;1.75;;
64959;SDS011;51487;52.266;10.542;2023-08-01T12:55:25;4.35;;;1.58;;
64959;SDS011;51487;52.266;10.542;2023-08-01T12:57:51;4.63;;;1.85;;
64959;SDS011;51487;52.266;10.542;2023-08-01T13:00:17;4.07;;;1.67;;
64959;SDS011;51487;52.266;10.542;2023-08-01T13:02:43;3.25;;;1.80;;
64959;SDS011;51487;52.266;10.542;2023-08-01T13:05:09;2.92;;;1.80;;
64959;SDS011;51487;52.266;10.542;2023-08-01T13:07:35;4.57;;;1.80;;
64959;SDS011;51487;52.266;10.542;2023-08-01T13:10:04;1.98;;;1.48;;
64959;SDS011;51487;52.266;10.542;2023-08-01T13:12:30;2.45;;;1.50;;
64959;SDS011;51487;52.266;10.542;2023-08-01T13:14:56;6.63;;;2.10;;
64959;SDS011;51487;52.266;10.542;2023-08-01T13:17:21;6.10;;;2.10;;
64959;SDS011;51487;52.266;10.542;2023-08-01T13:19:47;6.63;;;2.10;;
64959;SDS011;51487;52.266;10.542;2023-08-01T13:22:12;5.63;;;2.00;;
64959;SDS011;51487;52.266;10.542;2023-08-01T13:24:38;3.58;;;1.85;;
64959;SDS011;51487;52.266;10.542;2023-08-01T13:27:04;3.50;;;1.90;;
64959;SDS011;51487;52.266;10.542;2023-08-01T13:29:30;4.20;;;2.30;;
64959;SDS011;51487;52.266;10.542;2023-08-01T13:31:56;5.50;;;1.88;;
64959;SDS011;51487;52.266;10.542;2023-08-01T13:34:21;3.35;;;2.28;;
64959;SDS011;51487;52.266;10.542;2023-08-01T13:36:49;5.85;;;2.45;;
64959;SDS011;51487;52.266;10.542;2023-08-01T13:39:19;4.20;;;2.10;;
64959;SDS011;51487;52.266;10.542;2023-08-01T13:41:44;3.70;;;1.70;;
64959;SDS011;51487;52.266;10.542;2023-08-01T13:44:10;3.15;;;1.45;;
64959;SDS011;51487;52.266;10.542;2023-08-01T13:46:39;3.22;;;1.60;;
64959;SDS011;51487;52.266;10.542;2023-08-01T13:49:05;2.42;;;1.48;;
64959;SDS011;51487;52.266;10.542;2023-08-01T13:51:33;2.60;;;1.30;;
64959;SDS011;51487;52.266;10.542;2023-08-01T13:53:59;3.83;;;1.80;;
64959;SDS011;51487;52.266;10.542;2023-08-01T13:56:25;3.78;;;1.40;;
64959;SDS011;51487;52.266;10.542;2023-08-01T13:58:52;3.53;;;1.60;;
64959;SDS011;51487;52.266;10.542;2023-08-01T14:01:17;3.47;;;1.92;;
64959;SDS011;51487;52.266;10.542;2023-08-01T14:03:44;2.22;;;1.80;;
64959;SDS011;51487;52.266;10.542;2023-08-01T14:06:11;3.75;;;2.05;;
64959;SDS011;51487;52.266;10.542;2023-08-01T14:08:40;4.70;;;1.60;;
64959;SDS011;51487;52.266;10.542;2023-08-01T14:11:08;4.65;;;1.50;;
64959;SDS011;51487;52.266;10.542;2023-08-01T14:13:35;2.95;;;1.20;;
64959;SDS011;51487;52.266;10.542;2023-08-01T14:16:01;2.10;;;1.15;;
64959;SDS011;51487;52.266;10.542;2023-08-01T14:18:28;2.38;;;1.40;;
64959;SDS011;51487;52.266;10.542;2023-08-01T14:20:54;2.80;;;1.40;;
64959;SDS011;51487;52.266;10.542;2023-08-01T14:23:21;2.08;;;1.40;;
64959;SDS011;51487;52.266;10.542;2023-08-01T14:25:47;2.88;;;1.33;;
64959;SDS011;51487;52.266;10.542;2023-08-01T14:28:13;2.53;;;1.50;;
64959;SDS011;51487;52.266;10.542;2023-08-01T14:30:39;3.88;;;1.80;;
64959;SDS011;51487;52.266;10.542;2023-08-01T14:33:07;2.25;;;1.52;;
64959;SDS011;51487;52.266;10.542;2023-08-01T14:35:37;2.90;;;1.63;;
64959;SDS011;51487;52.266;10.542;2023-08-01T14:38:03;5.45;;;1.63;;
64959;SDS011;51487;52.266;10.542;2023-08-01T14:40:29;5.03;;;1.98;;